Time;durP1;ratioP1;P1;durP2;ratioP2;P2;SDS_P1;SDS_P2;PMS_P1;PMS_P2;Temp;Humidity;BMP_temperature;BMP_pressure;BME280_temperature;BME280_humidity;BME280_pressure;Samples;Min_cycle;Max_cycle;Signal;HPM_P1;HPM_P2
2022/03/03 00:04:15;;;;;;;50.90;29.23;;;1.60;99.90;;;;;;10255987;29;20281;-78
2022/03/03 00:09:57;;;;;;;43.50;26.67;;;1.60;99.90;;;;;;10239827;29;20516;-78
2022/03/03 00:15:19;;;;;;;43.13;26.80;;;1.60;99.90;;;;;;10240725;29;20487;-78
2022/03/03 00:21:01;;;;;;;48.87;28.53;;;1.60;99.90;;;;;;10239439;29;20205;-79
2022/03/03 00:26:23;;;;;;;50.10;29.30;;;1.70;99.90;;;;;;10238846;29;20238;-78
2022/03/03 00:31:45;;;;;;;51.50;28.20;;;1.60;99.90;;;;;;10228202;29;20217;-78
2022/03/03 00:37:07;;;;;;;53.93;30.47;;;1.60;99.90;;;;;;10252350;29;20224;-78
2022/03/03 00:42:48;;;;;;;50.23;29.70;;;1.70;99.90;;;;;;10228336;29;20511;-77
2022/03/03 00:48:29;;;;;;;48.00;27.07;;;1.60;99.90;;;;;;10239188;29;20222;-78
2022/03/03 00:53:51;;;;;;;43.33;27.43;;;1.50;99.90;;;;;;10251707;29;20196;-78
2022/03/03 00:59:13;;;;;;;41.97;25.63;;;1.50;99.90;;;;;;10214471;29;20259;-79
2022/03/03 01:04:55;;;;;;;39.70;24.43;;;1.50;99.90;;;;;;10206550;29;20522;-79
2022/03/03 01:10:17;;;;;;;35.70;21.07;;;1.60;99.90;;;;;;10250993;29;20228;-78
2022/03/03 01:15:39;;;;;;;35.07;21.47;;;1.70;99.90;;;;;;10237369;29;20408;-78
2022/03/03 01:21:01;;;;;;;41.70;23.80;;;1.70;99.90;;;;;;10238041;29;20473;-79
2022/03/03 01:26:23;;;;;;;38.37;23.50;;;1.70;99.90;;;;;;10236175;29;20240;-79
2022/03/03 01:32:05;;;;;;;40.83;24.33;;;1.70;99.90;;;;;;10237416;28;20265;-80
2022/03/03 01:37:47;;;;;;;40.50;23.03;;;1.70;99.90;;;;;;10225768;29;20236;-78
2022/03/03 01:43:09;;;;;;;39.00;23.23;;;1.70;99.90;;;;;;10235951;29;20565;-79
2022/03/03 01:48:31;;;;;;;40.50;22.67;;;1.70;99.90;;;;;;10252009;29;20212;-78
2022/03/03 01:53:53;;;;;;;40.13;22.17;;;1.70;99.90;;;;;;10222399;29;20564;-79
2022/03/03 01:59:37;;;;;;;35.67;19.73;;;1.60;99.90;;;;;;10236681;29;20243;-78
2022/03/03 02:04:59;;;;;;;32.50;19.43;;;1.50;99.90;;;;;;10236246;29;20272;-78
2022/03/03 02:10:40;;;;;;;33.90;19.50;;;1.40;99.90;;;;;;10236507;29;20216;-79
2022/03/03 02:16:02;;;;;;;32.17;17.73;;;1.30;99.90;;;;;;10251056;29;20207;-79
2022/03/03 02:21:30;;;;;;;35.30;20.73;;;1.40;99.90;;;;;;10247277;29;20192;-79
2022/03/03 02:27:11;;;;;;;40.40;23.50;;;1.40;99.90;;;;;;10223746;29;20271;-78
2022/03/03 02:32:52;;;;;;;28.87;17.83;;;1.50;99.90;;;;;;10235388;28;20200;-79
2022/03/03 02:38:34;;;;;;;41.57;19.93;;;1.50;99.90;;;;;;10235609;29;20236;-78
2022/03/03 02:44:15;;;;;;;40.10;21.77;;;1.50;99.90;;;;;;10235230;29;20209;-79
2022/03/03 02:49:37;;;;;;;35.43;20.87;;;1.40;99.90;;;;;;10250309;29;20210;-79
2022/03/03 02:55:20;;;;;;;32.57;17.20;;;1.40;99.90;;;;;;10244724;29;20506;-78
2022/03/03 03:01:04;;;;;;;42.53;22.13;;;1.40;99.90;;;;;;10235066;29;20427;-79
2022/03/03 03:06:26;;;;;;;31.53;18.43;;;1.30;99.90;;;;;;10234920;29;20385;-79
2022/03/03 03:12:08;;;;;;;39.13;19.63;;;1.20;99.90;;;;;;10235037;29;20219;-78
2022/03/03 03:17:30;;;;;;;31.13;17.90;;;1.10;99.90;;;;;;10233577;29;20278;-78
2022/03/03 03:22:52;;;;;;;28.63;17.03;;;1.20;99.90;;;;;;10247092;29;20235;-78
2022/03/03 03:28:33;;;;;;;27.77;15.60;;;1.30;99.90;;;;;;10233268;29;20510;-78
2022/03/03 03:33:55;;;;;;;27.90;15.87;;;1.40;99.90;;;;;;10250335;28;20229;-78
2022/03/03 03:39:37;;;;;;;31.07;17.90;;;1.40;99.90;;;;;;10241892;29;20261;-78
2022/03/03 03:45:18;;;;;;;38.53;19.90;;;1.30;99.90;;;;;;10241490;29;20208;-78
2022/03/03 03:51:00;;;;;;;32.23;18.23;;;1.20;99.90;;;;;;10241712;29;20580;-78
2022/03/03 03:56:41;;;;;;;27.90;15.80;;;1.10;99.90;;;;;;10200915;29;20260;-79
2022/03/03 04:02:03;;;;;;;31.50;17.63;;;1.10;99.90;;;;;;10214322;29;20208;-79
2022/03/03 04:07:25;;;;;;;26.50;15.60;;;1.00;99.90;;;;;;10214240;29;20247;-78
2022/03/03 04:12:47;;;;;;;30.10;17.13;;;1.00;99.90;;;;;;10205957;29;20542;-78
2022/03/03 04:18:10;;;;;;;29.90;17.37;;;0.90;99.90;;;;;;10213077;29;20237;-78
2022/03/03 04:23:51;;;;;;;30.20;17.27;;;0.80;99.90;;;;;;10228357;29;20256;-78
2022/03/03 04:29:33;;;;;;;29.40;14.63;;;0.90;99.90;;;;;;10249840;28;20260;-78
2022/03/03 04:34:54;;;;;;;24.43;13.93;;;0.90;99.90;;;;;;10236432;29;20197;-79
2022/03/03 04:40:17;;;;;;;31.13;17.67;;;0.90;99.90;;;;;;10254748;29;20324;-78
2022/03/03 04:45:39;;;;;;;35.13;18.73;;;0.80;99.90;;;;;;10253602;28;20200;-79
2022/03/03 04:51:20;;;;;;;33.20;17.73;;;0.70;99.90;;;;;;10238702;29;20505;-78
2022/03/03 04:56:42;;;;;;;35.50;19.63;;;0.80;99.90;;;;;;10251380;29;20228;-77
2022/03/03 05:02:05;;;;;;;34.30;19.03;;;0.80;99.90;;;;;;10237727;29;20238;-79
2022/03/03 05:07:27;;;;;;;31.03;17.40;;;0.70;99.90;;;;;;10251116;29;20194;-79
2022/03/03 05:13:08;;;;;;;35.07;17.90;;;0.70;99.90;;;;;;10237170;29;20208;-78
2022/03/03 05:18:49;;;;;;;29.93;17.23;;;0.70;99.90;;;;;;10238149;29;20291;-79
2022/03/03 05:24:31;;;;;;;32.90;17.23;;;0.70;99.90;;;;;;10247320;29;20246;-78
2022/03/03 05:30:12;;;;;;;30.87;16.67;;;0.70;99.90;;;;;;10237160;29;20461;-79
2022/03/03 05:35:59;;;;;;;55.30;27.43;;;0.70;99.90;;;;;;10236603;29;20252;-79
2022/03/03 05:41:21;;;;;;;30.20;16.30;;;0.60;99.90;;;;;;10249644;29;20254;-79
2022/03/03 05:47:03;;;;;;;34.70;19.07;;;0.60;99.90;;;;;;10236959;29;20244;-78
2022/03/03 05:52:45;;;;;;;30.33;16.77;;;0.70;99.90;;;;;;10236711;29;20425;-79
2022/03/03 05:58:44;;;;;;;32.57;17.83;;;0.70;99.90;;;;;;10245764;28;20228;-78
2022/03/03 06:04:30;;;;;;;37.10;18.80;;;0.80;99.90;;;;;;10236328;29;20548;-79
2022/03/03 06:09:56;;;;;;;33.77;18.17;;;0.80;99.90;;;;;;10251439;29;20207;-78
2022/03/03 06:15:22;;;;;;;41.97;20.37;;;0.70;99.90;;;;;;10235016;29;20345;-78
2022/03/03 06:21:03;;;;;;;29.30;16.77;;;0.70;99.90;;;;;;10245927;29;20236;-79
2022/03/03 06:26:26;;;;;;;35.33;18.93;;;0.70;99.90;;;;;;10233504;29;20311;-79
2022/03/03 06:32:08;;;;;;;44.93;22.03;;;0.70;99.90;;;;;;10234650;29;20218;-79
2022/03/03 06:37:30;;;;;;;76.43;37.47;;;0.60;99.90;;;;;;10235385;29;20246;-78
2022/03/03 06:43:12;;;;;;;68.63;29.93;;;0.70;99.90;;;;;;10234856;29;20209;-78
2022/03/03 06:48:53;;;;;;;50.40;24.53;;;0.80;99.90;;;;;;10235337;29;20249;-78
2022/03/03 06:54:21;;;;;;;84.60;39.30;;;0.70;99.90;;;;;;10234773;29;20371;-78
2022/03/03 07:00:03;;;;;;;114.93;48.13;;;0.80;99.90;;;;;;10235173;29;20227;-79
2022/03/03 07:05:45;;;;;;;77.30;36.07;;;0.90;99.90;;;;;;10245099;29;20200;-79
2022/03/03 07:11:07;;;;;;;32.93;19.77;;;1.00;99.90;;;;;;10228578;29;20247;-79
2022/03/03 07:16:37;;;;;;;47.37;24.77;;;1.00;99.90;;;;;;10241440;29;20204;-78
2022/03/03 07:22:41;;;;;;;50.97;26.77;;;0.90;99.90;;;;;;10241241;29;20223;-79
2022/03/03 07:28:25;;;;;;;40.73;20.63;;;0.90;99.90;;;;;;10242214;28;20244;-78
2022/03/03 07:33:54;;;;;;;39.57;20.43;;;1.10;99.90;;;;;;10256896;28;20200;-78
2022/03/03 07:39:18;;;;;;;34.37;16.70;;;1.20;99.90;;;;;;10241989;29;20277;-79
2022/03/03 07:44:41;;;;;;;38.23;19.50;;;1.20;99.90;;;;;;10241384;29;20502;-78
2022/03/03 07:50:23;;;;;;;33.60;18.77;;;1.10;99.90;;;;;;10240026;29;20235;-79
2022/03/03 07:55:54;;;;;;;31.17;17.23;;;1.10;99.90;;;;;;10226589;29;20239;-78
2022/03/03 08:01:36;;;;;;;29.73;15.40;;;1.10;99.90;;;;;;10240192;29;20271;-78
2022/03/03 08:07:06;;;;;;;25.40;14.13;;;1.30;99.90;;;;;;10239228;29;20431;-79
2022/03/03 08:12:51;;;;;;;23.47;14.93;;;1.40;99.90;;;;;;10250906;29;20208;-79
2022/03/03 08:18:15;;;;;;;33.37;18.93;;;1.50;99.90;;;;;;10238385;29;20494;-79
2022/03/03 08:23:37;;;;;;;39.53;19.07;;;1.70;99.90;;;;;;10196165;29;20245;-79
2022/03/03 08:28:58;;;;;;;36.23;17.93;;;1.70;99.90;;;;;;10245364;29;20248;-78
2022/03/03 08:34:43;;;;;;;34.50;17.23;;;1.80;99.90;;;;;;10214522;29;20199;-81
2022/03/03 08:40:08;;;;;;;31.10;16.30;;;1.70;99.90;;;;;;10226057;29;20529;-79
2022/03/03 08:45:33;;;;;;;28.17;15.03;;;1.70;99.90;;;;;;10229842;29;20239;-80
2022/03/03 08:50:56;;;;;;;32.43;15.73;;;1.90;99.90;;;;;;10243751;29;20230;-79
2022/03/03 08:56:37;;;;;;;34.27;17.13;;;2.10;99.90;;;;;;10231901;29;20276;-78
2022/03/03 09:01:59;;;;;;;31.50;15.67;;;2.20;99.90;;;;;;10232275;29;20513;-78
2022/03/03 09:07:21;;;;;;;25.73;14.00;;;2.10;99.90;;;;;;10230592;29;20214;-78
2022/03/03 09:13:02;;;;;;;43.77;20.97;;;2.20;99.90;;;;;;10231401;29;20460;-77
2022/03/03 09:18:26;;;;;;;34.83;17.13;;;2.40;99.90;;;;;;10231425;29;20216;-81
2022/03/03 09:23:48;;;;;;;35.93;18.17;;;2.40;99.90;;;;;;10242435;29;20255;-78
2022/03/03 09:29:33;;;;;;;40.70;19.53;;;2.50;99.90;;;;;;10214429;29;20267;-79
2022/03/03 09:34:56;;;;;;;33.77;17.80;;;2.50;99.90;;;;;;10212295;29;20198;-79
2022/03/03 09:40:18;;;;;;;33.57;17.00;;;2.70;99.90;;;;;;10231726;29;20271;-77
2022/03/03 09:46:00;;;;;;;68.50;28.97;;;2.80;99.90;;;;;;10231579;29;20572;-80
2022/03/03 09:51:41;;;;;;;34.90;18.60;;;2.90;99.90;;;;;;10247566;29;20233;-81
2022/03/03 09:57:04;;;;;;;58.43;26.33;;;3.00;99.90;;;;;;10231457;29;20206;-80
2022/03/03 10:03:03;;;;;;;81.10;31.97;;;3.10;99.90;;;;;;10231266;29;20208;-80
2022/03/03 10:08:44;;;;;;;43.00;23.00;;;2.90;99.90;;;;;;10241389;29;20245;-78
2022/03/03 10:14:28;;;;;;;43.23;20.17;;;3.00;99.90;;;;;;10229044;29;20205;-80
2022/03/03 10:20:10;;;;;;;34.50;19.10;;;3.20;99.90;;;;;;10226484;29;20292;-77
2022/03/03 10:25:35;;;;;;;36.40;18.83;;;3.50;99.90;;;;;;10227880;29;20366;-79
2022/03/03 10:31:02;;;;;;;32.33;17.93;;;3.70;99.90;;;;;;10241330;29;20304;-78
2022/03/03 10:36:26;;;;;;;38.47;20.00;;;3.80;99.90;;;;;;10228803;29;20230;-79
2022/03/03 10:41:53;;;;;;;41.57;20.63;;;3.90;99.90;;;;;;10244321;29;20213;-79
2022/03/03 10:47:21;;;;;;;43.70;23.63;;;4.00;99.90;;;;;;10231515;29;20202;-81
2022/03/03 10:52:44;;;;;;;38.33;18.83;;;4.10;99.90;;;;;;10228963;29;20211;-80
2022/03/03 10:58:07;;;;;;;38.10;18.90;;;4.30;99.90;;;;;;10229403;29;20209;-77
2022/03/03 11:03:29;;;;;;;42.37;19.17;;;4.70;99.90;;;;;;10229325;29;20200;-80
2022/03/03 11:08:54;;;;;;;41.10;20.33;;;4.90;99.90;;;;;;10229354;29;20230;-78
2022/03/03 11:14:18;;;;;;;48.50;23.17;;;5.10;99.90;;;;;;10241179;29;20206;-78
2022/03/03 11:19:48;;;;;;;42.07;20.23;;;5.20;99.90;;;;;;10241307;29;20469;-80
2022/03/03 11:25:17;;;;;;;32.07;15.60;;;5.70;99.90;;;;;;10228275;29;20268;-78
2022/03/03 11:30:39;;;;;;;34.10;15.57;;;6.80;99.90;;;;;;10237285;29;20230;-78
2022/03/03 11:36:08;;;;;;;32.30;16.43;;;8.60;99.90;;;;;;10200386;29;20379;-80
2022/03/03 11:41:49;;;;;;;31.50;15.97;;;9.10;99.90;;;;;;10214539;29;20251;-91
2022/03/03 11:47:29;;;;;;;29.27;16.97;;;10.20;99.90;;;;;;10228412;29;20218;-78
2022/03/03 11:52:53;;;;;;;30.45;18.08;;;11.30;93.00;;;;;;10229629;29;20202;-84
2022/03/03 11:58:21;;;;;;;34.28;20.40;;;12.10;88.80;;;;;;10207734;29;20215;-81
2022/03/03 12:04:05;;;;;;;28.50;14.93;;;12.80;77.10;;;;;;10248739;29;20521;-82
2022/03/03 12:09:33;;;;;;;28.08;14.23;;;12.60;72.00;;;;;;10218680;29;20259;-78
2022/03/03 12:15:01;;;;;;;31.35;18.10;;;13.10;65.00;;;;;;10247633;29;20559;-81
2022/03/03 12:20:34;;;;;;;31.95;17.27;;;13.20;61.10;;;;;;10205255;29;20264;-81
2022/03/03 12:26:13;;;;;;;19.50;11.20;;;13.50;58.00;;;;;;10249461;29;20250;-81
2022/03/03 12:31:40;;;;;;;16.38;9.85;;;13.70;54.00;;;;;;10223036;29;20221;-78
2022/03/03 12:37:04;;;;;;;24.38;12.82;;;13.80;53.50;;;;;;10234290;29;20509;-80
2022/03/03 12:42:31;;;;;;;20.65;11.98;;;13.90;51.90;;;;;;10233028;29;20201;-83
2022/03/03 12:47:54;;;;;;;22.17;11.75;;;14.40;50.40;;;;;;10233461;29;20212;-92
2022/03/03 12:53:18;;;;;;;20.02;11.50;;;14.70;46.60;;;;;;10233465;29;20198;-82
2022/03/03 12:58:40;;;;;;;22.15;10.95;;;14.80;46.10;;;;;;10219208;29;20209;-80
2022/03/03 13:04:04;;;;;;;17.17;11.10;;;15.00;44.30;;;;;;10232504;29;20202;-80
2022/03/03 13:09:26;;;;;;;18.90;10.93;;;15.00;44.20;;;;;;10248488;29;20629;-82
2022/03/03 13:15:01;;;;;;;17.65;10.02;;;14.90;44.00;;;;;;10219311;29;20223;-77
2022/03/03 13:20:24;;;;;;;20.42;11.43;;;14.40;45.30;;;;;;10230674;29;20200;-79
2022/03/03 13:26:12;;;;;;;18.63;10.27;;;13.80;48.00;;;;;;10233477;29;20282;-82
2022/03/03 13:31:35;;;;;;;16.37;10.17;;;13.50;49.70;;;;;;10218428;29;20240;-79
2022/03/03 13:37:00;;;;;;;19.38;9.65;;;13.80;50.30;;;;;;10218767;29;20203;-82
2022/03/03 13:42:26;;;;;;;23.73;11.50;;;14.00;48.70;;;;;;10244366;29;20508;-81
2022/03/03 13:48:00;;;;;;;41.55;11.45;;;13.50;47.20;;;;;;10231459;29;20272;-80
2022/03/03 13:53:24;;;;;;;19.73;9.43;;;13.70;49.20;;;;;;10220495;29;20230;-78
2022/03/03 13:58:46;;;;;;;21.60;11.23;;;13.20;51.00;;;;;;10201578;29;20242;-78
2022/03/03 14:04:13;;;;;;;22.97;11.27;;;12.90;56.80;;;;;;10243790;29;20210;-78
2022/03/03 14:09:35;;;;;;;21.87;9.37;;;12.70;59.70;;;;;;10216722;29;20864;-78
2022/03/03 14:14:57;;;;;;;18.17;9.37;;;12.90;59.50;;;;;;10232289;29;20197;-78
2022/03/03 14:20:19;;;;;;;15.23;8.37;;;12.80;60.30;;;;;;10234677;29;20377;-78
2022/03/03 14:25:41;;;;;;;18.17;8.33;;;12.40;62.90;;;;;;10226928;29;20344;-78
2022/03/03 14:31:04;;;;;;;25.03;11.60;;;11.30;73.50;;;;;;10229057;29;20237;-78
2022/03/03 14:36:28;;;;;;;31.03;15.47;;;10.20;92.00;;;;;;10230232;29;20227;-78
2022/03/03 14:41:52;;;;;;;28.10;15.57;;;9.00;98.20;;;;;;10229818;29;20291;-78
2022/03/03 14:47:13;;;;;;;28.77;13.60;;;8.20;99.90;;;;;;10215185;29;20206;-78
2022/03/03 14:52:35;;;;;;;12.13;5.63;;;7.70;99.90;;;;;;10245088;29;20245;-79
2022/03/03 14:57:58;;;;;;;10.07;4.07;;;7.40;99.90;;;;;;10230509;29;20201;-77
2022/03/03 15:03:20;;;;;;;14.83;6.13;;;7.10;97.40;;;;;;10244391;28;20414;-78
2022/03/03 15:08:42;;;;;;;7.53;3.40;;;7.20;95.20;;;;;;10229257;29;20225;-78
2022/03/03 15:14:04;;;;;;;9.83;3.40;;;7.20;95.00;;;;;;10230814;29;20192;-80
2022/03/03 15:19:26;;;;;;;15.73;4.00;;;7.20;95.80;;;;;;10222993;29;20211;-78
2022/03/03 15:24:48;;;;;;;15.23;7.10;;;7.10;95.00;;;;;;10227476;29;20569;-78
2022/03/03 15:30:11;;;;;;;14.93;6.33;;;7.00;96.10;;;;;;10210566;29;20592;-77
2022/03/03 15:41:13;;;;;;;39.50;21.37;;;6.70;97.90;;;;;;10236123;29;20205;-82
2022/03/03 15:46:36;;;;;;;54.77;25.97;;;6.70;99.90;;;;;;10232609;29;20220;-78
2022/03/03 15:51:58;;;;;;;35.70;16.10;;;6.70;99.90;;;;;;10248623;29;20237;-77
2022/03/03 15:57:20;;;;;;;29.87;18.23;;;6.60;99.90;;;;;;10236781;29;20554;-77
2022/03/03 16:02:42;;;;;;;29.57;11.63;;;6.50;99.90;;;;;;10236017;29;20214;-79
2022/03/03 16:08:05;;;;;;;33.43;14.43;;;6.20;99.90;;;;;;10235546;29;20763;-78
2022/03/03 16:13:28;;;;;;;23.40;10.00;;;6.20;99.90;;;;;;10236910;29;20200;-79
2022/03/03 16:18:51;;;;;;;23.23;10.10;;;6.00;99.90;;;;;;10250618;29;20482;-81
2022/03/03 16:24:14;;;;;;;52.07;19.67;;;5.80;99.90;;;;;;10234537;29;20617;-79
2022/03/03 16:29:52;;;;;;;38.73;16.93;;;5.70;99.90;;;;;;10239622;29;20495;-79
2022/03/03 16:35:15;;;;;;;24.73;10.77;;;5.60;99.90;;;;;;10254414;28;20554;-79
2022/03/03 16:40:37;;;;;;;30.20;10.50;;;5.50;99.90;;;;;;10253000;29;20207;-79
2022/03/03 16:45:59;;;;;;;31.20;13.20;;;5.20;99.90;;;;;;10234858;29;20234;-79
2022/03/03 16:51:22;;;;;;;29.07;11.07;;;5.20;99.90;;;;;;10234754;29;20249;-78
2022/03/03 16:56:45;;;;;;;29.77;12.33;;;5.10;99.90;;;;;;10236335;29;20199;-78
2022/03/03 17:02:07;;;;;;;31.87;14.50;;;4.90;99.90;;;;;;10251492;29;20519;-79
2022/03/03 17:07:29;;;;;;;28.17;13.83;;;4.90;99.90;;;;;;10226618;29;20266;-78
2022/03/03 17:12:51;;;;;;;35.80;16.00;;;4.80;99.90;;;;;;10238483;29;20408;-78
2022/03/03 17:18:13;;;;;;;23.97;11.90;;;4.80;99.90;;;;;;10252843;29;20399;-78
2022/03/03 17:23:39;;;;;;;22.73;10.40;;;4.60;99.90;;;;;;10250170;29;20429;-78
2022/03/03 17:29:01;;;;;;;30.60;15.43;;;4.60;99.90;;;;;;10252628;29;20231;-79
2022/03/03 17:34:25;;;;;;;28.03;12.03;;;4.60;99.90;;;;;;10228600;28;20198;-78
2022/03/03 17:39:47;;;;;;;30.53;15.50;;;4.60;99.90;;;;;;10197135;29;20199;-78
2022/03/03 17:45:09;;;;;;;16.93;8.00;;;4.60;99.90;;;;;;10214635;29;20210;-78
2022/03/03 17:50:32;;;;;;;15.10;6.77;;;4.50;99.90;;;;;;10248989;29;20237;-78
2022/03/03 17:55:54;;;;;;;9.67;4.37;;;4.40;99.90;;;;;;10236195;29;20203;-78
2022/03/03 18:01:16;;;;;;;9.27;4.17;;;4.40;99.90;;;;;;10222225;29;20203;-78
2022/03/03 18:06:39;;;;;;;17.17;8.07;;;4.40;99.90;;;;;;10237570;29;20425;-79
2022/03/03 18:12:01;;;;;;;22.00;10.97;;;4.30;99.90;;;;;;10236124;29;20231;-78
2022/03/03 18:17:24;;;;;;;21.13;9.10;;;4.20;99.90;;;;;;10250887;29;20286;-78
2022/03/03 18:22:46;;;;;;;14.10;6.23;;;4.20;99.90;;;;;;10249929;29;20285;-79
2022/03/03 18:28:08;;;;;;;24.93;11.07;;;4.20;99.90;;;;;;10234819;29;20195;-79
2022/03/03 18:33:30;;;;;;;26.70;13.33;;;4.30;99.90;;;;;;10234311;29;20203;-78
2022/03/03 18:38:53;;;;;;;27.53;11.67;;;4.30;99.90;;;;;;10221184;29;20199;-79
2022/03/03 18:44:16;;;;;;;46.80;20.93;;;4.30;99.90;;;;;;10234556;29;20222;-79
2022/03/03 18:49:39;;;;;;;29.33;12.63;;;4.30;99.90;;;;;;10221363;29;20245;-78
2022/03/03 18:55:02;;;;;;;19.27;8.20;;;4.30;99.90;;;;;;10235614;29;20198;-79
2022/03/03 19:00:26;;;;;;;25.67;11.80;;;4.20;99.90;;;;;;10249921;28;20241;-79
2022/03/03 19:05:54;;;;;;;26.97;11.30;;;4.20;99.90;;;;;;10241843;29;20206;-79
2022/03/03 19:11:26;;;;;;;17.00;7.57;;;4.20;99.90;;;;;;10230336;29;20235;-78
2022/03/03 19:16:48;;;;;;;21.47;9.67;;;4.00;99.90;;;;;;10257463;29;20209;-79
2022/03/03 19:22:10;;;;;;;22.17;8.37;;;4.00;99.90;;;;;;10257372;28;20215;-79
2022/03/03 19:27:34;;;;;;;16.43;6.77;;;4.00;99.90;;;;;;10242786;29;20417;-78
2022/03/03 19:38:37;;;;;;;19.70;6.83;;;3.80;99.90;;;;;;10242129;29;20201;-79
2022/03/03 19:43:59;;;;;;;15.93;7.50;;;3.90;99.90;;;;;;10254447;29;20289;-78
2022/03/03 19:49:21;;;;;;;22.17;9.07;;;3.90;99.90;;;;;;10241846;29;20528;-78
2022/03/03 19:54:42;;;;;;;10.37;5.47;;;3.90;99.90;;;;;;10243185;29;20214;-79
2022/03/03 20:00:07;;;;;;;23.00;9.23;;;3.90;99.90;;;;;;10253586;29;20266;-79
2022/03/03 20:05:29;;;;;;;24.03;9.53;;;3.90;99.90;;;;;;10240411;29;20270;-78
2022/03/03 20:10:58;;;;;;;21.63;9.93;;;3.90;99.90;;;;;;10255766;28;20411;-78
2022/03/03 20:16:20;;;;;;;19.30;9.10;;;4.00;99.90;;;;;;10238720;29;20203;-78
2022/03/03 20:21:44;;;;;;;23.37;8.70;;;3.90;99.90;;;;;;10254714;28;20289;-79
2022/03/03 20:27:06;;;;;;;18.80;7.43;;;3.90;99.90;;;;;;10240180;29;20312;-78
2022/03/03 20:32:28;;;;;;;16.57;5.20;;;3.90;99.90;;;;;;10254784;28;20227;-78
2022/03/03 20:37:50;;;;;;;7.60;3.30;;;3.90;99.90;;;;;;10252512;29;20384;-79
2022/03/03 20:43:13;;;;;;;13.03;4.73;;;3.90;99.90;;;;;;10252089;29;20210;-78
2022/03/03 20:48:37;;;;;;;10.03;3.83;;;3.80;99.90;;;;;;10239564;29;20201;-78
2022/03/03 20:53:59;;;;;;;7.33;2.57;;;3.70;99.90;;;;;;10254498;28;20213;-79
2022/03/03 20:59:21;;;;;;;8.43;2.97;;;3.70;99.90;;;;;;10253966;28;20200;-78
2022/03/03 21:04:42;;;;;;;13.20;5.17;;;3.80;99.90;;;;;;10224729;29;20258;-78
2022/03/03 21:10:05;;;;;;;6.27;3.03;;;3.70;99.90;;;;;;10238646;29;20227;-78
2022/03/03 21:15:27;;;;;;;10.27;3.90;;;3.70;99.90;;;;;;10253172;28;20501;-78
2022/03/03 21:20:49;;;;;;;11.00;4.63;;;3.70;99.90;;;;;;10253025;29;20203;-79
2022/03/03 21:26:12;;;;;;;17.13;7.10;;;3.70;99.90;;;;;;10237688;29;20592;-79
2022/03/03 21:31:35;;;;;;;13.03;6.00;;;3.70;99.90;;;;;;10252675;28;20229;-78
2022/03/03 21:36:57;;;;;;;18.83;7.63;;;3.60;99.90;;;;;;10250320;29;20247;-78
2022/03/03 21:42:19;;;;;;;24.23;10.00;;;3.60;99.90;;;;;;10249722;29;20210;-78
2022/03/03 21:47:41;;;;;;;13.63;6.40;;;3.70;99.90;;;;;;10248787;29;20207;-78
2022/03/03 21:53:04;;;;;;;37.20;12.13;;;3.70;99.90;;;;;;10198831;29;20232;-78
2022/03/03 21:58:26;;;;;;;22.50;8.43;;;3.60;99.90;;;;;;10197750;29;20195;-79
2022/03/03 22:03:49;;;;;;;28.73;11.33;;;3.60;99.90;;;;;;10236643;29;20203;-78
2022/03/03 22:09:11;;;;;;;22.17;9.03;;;3.60;99.90;;;;;;10235214;29;20211;-79
2022/03/03 22:14:34;;;;;;;26.83;10.67;;;3.70;99.90;;;;;;10235500;29;20203;-78
2022/03/03 22:19:57;;;;;;;12.00;5.40;;;3.70;99.90;;;;;;10236256;29;20416;-78
2022/03/03 22:25:19;;;;;;;10.23;3.40;;;3.50;99.90;;;;;;10248005;28;20240;-78
2022/03/03 22:30:41;;;;;;;7.03;3.53;;;3.50;99.90;;;;;;10250557;28;20273;-78
2022/03/03 22:36:04;;;;;;;18.07;6.87;;;3.50;99.90;;;;;;10248282;29;20196;-78
2022/03/03 22:41:27;;;;;;;18.73;7.80;;;3.50;99.90;;;;;;10234508;29;20237;-79
2022/03/03 22:46:48;;;;;;;15.07;5.43;;;3.50;99.90;;;;;;10235744;29;20206;-78
2022/03/03 22:52:16;;;;;;;19.40;7.50;;;3.40;99.90;;;;;;10235580;29;20228;-79
2022/03/03 22:57:38;;;;;;;13.07;4.43;;;3.40;99.90;;;;;;10250732;28;20211;-79
2022/03/03 23:08:41;;;;;;;18.27;7.40;;;3.30;99.90;;;;;;10234155;29;20210;-78
2022/03/03 23:14:03;;;;;;;9.73;4.97;;;3.30;99.90;;;;;;10247720;29;20421;-79
2022/03/03 23:19:26;;;;;;;18.57;7.77;;;3.20;99.90;;;;;;10249973;28;20203;-79
2022/03/03 23:24:48;;;;;;;15.37;5.83;;;3.20;99.90;;;;;;10234130;29;20300;-79
2022/03/03 23:30:11;;;;;;;13.00;5.37;;;3.10;99.90;;;;;;10249528;28;20220;-78
2022/03/03 23:35:33;;;;;;;10.73;4.33;;;3.00;99.90;;;;;;10247203;29;20200;-79
2022/03/03 23:40:56;;;;;;;11.40;5.77;;;3.00;99.90;;;;;;10233526;29;20225;-78
2022/03/03 23:46:18;;;;;;;14.93;10.27;;;3.00;99.90;;;;;;10246993;29;20506;-78
2022/03/03 23:51:40;;;;;;;10.13;3.67;;;2.90;99.90;;;;;;10240377;29;20237;-78
2022/03/03 23:57:03;;;;;;;12.63;5.77;;;2.80;99.90;;;;;;10230119;29;20228;-79
